createdAt,value
2023-01-09T00:03:01.026Z,788.49
2023-01-09T00:06:07.550Z,753.32
2023-01-09T00:09:17.019Z,757.14
2023-01-09T00:12:23.126Z,808.64
2023-01-09T00:15:30.360Z,842.21
2023-01-09T00:18:37.360Z,857.24
2023-01-09T00:21:44.303Z,826.11
2023-01-09T00:24:52.978Z,815.23
2023-01-09T00:27:59.955Z,834.44
2023-01-09T00:31:09.590Z,889.84
2023-01-09T00:34:16.662Z,887.19
2023-01-09T00:37:22.731Z,912.85
2023-01-09T00:40:32.290Z,809.45
2023-01-09T00:43:48.012Z,781.86
2023-01-09T00:47:00.608Z,764.52
2023-01-09T00:50:13.497Z,733.21
2023-01-09T00:53:26.727Z,714.84
2023-01-09T00:56:39.279Z,710.73
2023-01-09T00:59:47.547Z,700.75
2023-01-09T01:02:53.697Z,670.92
2023-01-09T01:06:13.073Z,663.51
2023-01-09T01:09:19.197Z,682.19
2023-01-09T01:12:28.951Z,697.64
2023-01-09T01:15:35.335Z,689.99
2023-01-09T01:18:43.738Z,726.04
2023-01-09T01:21:49.945Z,762.78
2023-01-09T01:24:56.930Z,684.98
2023-01-09T01:28:05.684Z,675.79
2023-01-09T01:31:18.648Z,686.79
2023-01-09T01:34:24.861Z,694.45
2023-01-09T01:37:31.828Z,706.30
2023-01-09T01:40:38.548Z,727.45
2023-01-09T01:44:00.024Z,771.83
2023-01-09T01:47:06.333Z,756.47
2023-01-09T01:50:24.563Z,717.08
2023-01-09T01:53:39.065Z,689.39
2023-01-09T01:56:53.860Z,676.55
2023-01-09T02:00:07.772Z,728.70
2023-01-09T02:03:18.887Z,805.11
2023-01-09T02:06:25.126Z,821.84
2023-01-09T02:09:32.492Z,862.42
2023-01-09T02:12:38.467Z,866.00
2023-01-09T02:16:22.855Z,877.38
2023-01-09T02:20:43.573Z,877.59
2023-01-09T02:24:31.304Z,984.29
2023-01-09T02:28:37.328Z,914.25
2023-01-09T02:32:00.144Z,1189.91
2023-01-09T02:35:31.552Z,1106.38
2023-01-09T02:38:56.470Z,1026.96
2023-01-09T02:42:16.194Z,990.98
2023-01-09T02:45:22.551Z,965.00
2023-01-09T02:48:34.400Z,907.64
2023-01-09T02:51:55.162Z,812.17
2023-01-09T02:55:19.570Z,783.22
2023-01-09T02:58:54.927Z,785.43
2023-01-09T03:02:35.191Z,781.13
2023-01-09T03:05:56.956Z,867.05
2023-01-09T03:09:15.278Z,871.12
2023-01-09T03:12:28.746Z,841.57
2023-01-09T03:15:42.939Z,811.84
2023-01-09T03:18:54.779Z,823.19
2023-01-09T03:22:05.116Z,847.47
2023-01-09T03:25:13.244Z,858.96
2023-01-09T03:28:32.155Z,835.60
2023-01-09T03:31:38.375Z,828.12
2023-01-09T03:34:45.210Z,822.47
2023-01-09T03:37:54.243Z,782.24
2023-01-09T03:41:01.281Z,769.61
2023-01-09T03:44:07.403Z,756.16
2023-01-09T03:47:14.254Z,757.06
2023-01-09T03:50:20.491Z,735.95
2023-01-09T03:53:32.204Z,736.91
2023-01-09T03:56:38.489Z,738.95
2023-01-09T03:59:45.405Z,713.72
2023-01-09T04:02:51.665Z,722.20
2023-01-09T04:05:58.721Z,729.67
2023-01-09T04:09:07.491Z,723.39
2023-01-09T04:12:14.615Z,714.52
2023-01-09T04:15:21.047Z,718.73
2023-01-09T04:18:27.971Z,701.35
2023-01-09T04:21:34.110Z,702.18
2023-01-09T04:24:43.722Z,679.74
2023-01-09T04:27:49.873Z,667.27
2023-01-09T04:30:56.731Z,677.38
2023-01-09T04:34:02.735Z,621.87
2023-01-09T04:37:09.683Z,627.03
2023-01-09T04:40:21.582Z,651.17
2023-01-09T04:43:28.908Z,645.64
2023-01-09T04:46:34.980Z,615.02
2023-01-09T04:49:41.954Z,583.81
2023-01-09T04:52:48.116Z,593.65
2023-01-09T04:55:57.586Z,635.95
2023-01-09T04:59:03.671Z,677.31
2023-01-09T05:02:10.893Z,654.41
2023-01-09T05:05:17.077Z,626.57
2023-01-09T05:08:24.827Z,564.96
2023-01-09T05:11:33.572Z,561.51
2023-01-09T05:14:40.578Z,567.06
2023-01-09T05:17:46.634Z,559.49
2023-01-09T05:20:53.544Z,548.96
2023-01-09T05:23:59.665Z,563.63
2023-01-09T05:27:09.166Z,577.86
2023-01-09T05:30:18.210Z,593.15
2023-01-09T05:33:25.439Z,659.31
2023-01-09T05:36:31.489Z,711.68
2023-01-09T05:39:38.561Z,736.65
2023-01-09T05:42:48.349Z,725.61
2023-01-09T05:45:55.446Z,690.76
2023-01-09T05:49:01.982Z,689.86
2023-01-09T05:52:08.916Z,678.79
2023-01-09T05:55:16.106Z,689.41
2023-01-09T05:58:25.628Z,640.52
2023-01-09T06:01:31.808Z,609.20
2023-01-09T06:04:38.813Z,602.65
2023-01-09T06:07:45.661Z,598.29
2023-01-09T06:10:52.667Z,614.43
2023-01-09T06:14:01.378Z,618.70
2023-01-09T06:17:08.353Z,614.14
2023-01-09T06:20:15.347Z,627.32
2023-01-09T06:23:22.239Z,634.99
2023-01-09T06:26:29.234Z,635.26
2023-01-09T06:29:38.689Z,657.90
2023-01-09T06:32:44.859Z,667.71
2023-01-09T06:35:51.797Z,665.51
2023-01-09T06:38:57.752Z,659.34
2023-01-09T06:42:04.655Z,667.19
2023-01-09T06:45:14.693Z,631.78
2023-01-09T06:48:21.481Z,632.38
2023-01-09T06:51:27.503Z,631.63
2023-01-09T06:54:34.697Z,642.68
2023-01-09T06:57:40.747Z,646.33
2023-01-09T07:00:50.953Z,644.27
2023-01-09T07:03:57.167Z,634.67
2023-01-09T07:07:04.111Z,637.06
2023-01-09T07:10:13.238Z,665.74
2023-01-09T07:13:20.089Z,672.03
2023-01-09T07:16:29.019Z,649.28
2023-01-09T07:19:36.076Z,632.22
2023-01-09T07:22:42.236Z,650.90
2023-01-09T07:25:49.937Z,629.52
2023-01-09T07:28:55.949Z,626.41
2023-01-09T07:32:05.812Z,632.94
2023-01-09T07:35:13.909Z,636.65
2023-01-09T07:38:20.898Z,661.92
2023-01-09T07:41:26.988Z,637.85
2023-01-09T07:44:34.029Z,598.09
2023-01-09T07:47:43.960Z,608.86
2023-01-09T07:50:50.800Z,609.10
2023-01-09T07:53:57.049Z,595.75
2023-01-09T07:57:04.222Z,635.60
2023-01-09T08:00:13.655Z,643.71
2023-01-09T08:03:23.129Z,632.43
2023-01-09T08:06:29.149Z,585.91
2023-01-09T08:09:35.969Z,595.17
2023-01-09T08:12:46.353Z,599.69
2023-01-09T08:15:53.140Z,615.43
2023-01-09T08:19:02.001Z,604.06
2023-01-09T08:22:08.832Z,534.45
2023-01-09T08:25:14.833Z,499.39
2023-01-09T08:28:21.679Z,464.74
2023-01-09T08:31:27.918Z,436.16
2023-01-09T08:34:38.819Z,437.74
2023-01-09T08:37:48.425Z,419.56
2023-01-09T08:40:55.670Z,414.36
2023-01-09T08:44:14.292Z,426.87
2023-01-09T08:47:28.973Z,455.19
2023-01-09T08:50:37.843Z,483.60
2023-01-09T08:53:44.803Z,504.91
2023-01-09T08:56:50.955Z,525.95
2023-01-09T08:59:57.937Z,606.68
2023-01-09T09:03:05.205Z,682.71
2023-01-09T09:06:14.842Z,631.89
2023-01-09T09:09:21.000Z,562.78
2023-01-09T09:12:28.349Z,519.95
2023-01-09T09:15:34.656Z,490.63
2023-01-09T09:18:41.612Z,431.81
2023-01-09T09:21:50.297Z,400.23
2023-01-09T09:24:57.316Z,374.58
2023-01-09T09:28:03.975Z,338.14
2023-01-09T09:31:11.656Z,331.71
2023-01-09T09:34:17.713Z,296.71
2023-01-09T09:37:27.897Z,371.02
2023-01-09T09:41:34.278Z,294.32
2023-01-09T09:45:05.875Z,200.62
2023-01-09T09:48:38.190Z,196.30
2023-01-09T09:52:12.290Z,190.58
2023-01-09T09:55:33.049Z,175.20
2023-01-09T09:58:44.749Z,157.55
2023-01-09T10:02:01.331Z,145.48
2023-01-09T10:05:20.163Z,143.31
2023-01-09T10:08:44.360Z,142.58
2023-01-09T10:12:06.990Z,166.62
2023-01-09T10:15:22.605Z,208.77
2023-01-09T10:18:50.439Z,179.41
2023-01-09T10:22:16.270Z,166.69
2023-01-09T10:25:34.453Z,165.56
2023-01-09T10:29:26.965Z,164.78
2023-01-09T10:33:04.595Z,182.19
2023-01-09T10:37:01.881Z,157.04
2023-01-09T10:40:24.022Z,110.20
2023-01-09T10:43:42.147Z,104.66
2023-01-09T10:46:58.280Z,90.31
2023-01-09T10:50:21.788Z,70.63
2023-01-09T10:53:38.850Z,77.27
2023-01-09T10:56:58.501Z,77.20
2023-01-09T11:00:06.893Z,69.74
2023-01-09T11:03:19.592Z,75.78
2023-01-09T11:06:35.535Z,68.66
2023-01-09T11:10:01.115Z,64.11
2023-01-09T11:13:22.088Z,66.78
2023-01-09T11:16:28.279Z,63.74
2023-01-09T11:19:37.850Z,75.38
2023-01-09T11:22:48.574Z,79.94
2023-01-09T11:25:58.803Z,92.60
2023-01-09T11:29:15.707Z,118.13
2023-01-09T11:32:27.936Z,116.73
2023-01-09T11:35:38.670Z,99.36
2023-01-09T11:38:54.920Z,96.24
2023-01-09T11:42:05.483Z,97.40
2023-01-09T11:45:20.694Z,97.54
2023-01-09T11:48:57.244Z,106.61
2023-01-09T11:52:23.429Z,115.64
2023-01-09T11:55:41.803Z,118.68
2023-01-09T11:58:49.320Z,155.26
2023-01-09T12:02:34.093Z,198.39
2023-01-09T12:06:01.568Z,288.57
2023-01-09T12:09:19.591Z,275.65
2023-01-09T12:12:44.943Z,203.74
2023-01-09T12:16:11.171Z,174.49
2023-01-09T12:20:07.661Z,152.20
2023-01-09T12:23:42.932Z,193.07
2023-01-09T12:27:17.526Z,185.29
2023-01-09T12:30:43.566Z,175.18
2023-01-09T12:34:23.011Z,233.58
2023-01-09T12:38:08.441Z,260.53
2023-01-09T12:41:46.626Z,225.61
2023-01-09T12:45:05.113Z,194.76
2023-01-09T12:48:38.601Z,165.81
2023-01-09T12:51:55.198Z,148.67
2023-01-09T12:55:17.734Z,132.27
2023-01-09T12:58:39.409Z,162.27
2023-01-09T13:01:53.205Z,183.51
2023-01-09T13:05:06.142Z,167.45
2023-01-09T13:08:25.928Z,181.56
2023-01-09T13:11:43.777Z,214.14
2023-01-09T13:14:59.403Z,209.81
2023-01-09T13:18:19.762Z,201.60
2023-01-09T13:21:27.672Z,195.48
2023-01-09T13:24:51.084Z,170.57
2023-01-09T13:28:05.183Z,165.18
2023-01-09T13:31:57.627Z,162.64
2023-01-09T13:35:15.642Z,181.68
2023-01-09T13:38:26.900Z,132.20
2023-01-09T13:41:48.121Z,100.80
2023-01-09T13:45:11.832Z,123.27
2023-01-09T13:48:32.394Z,95.98
2023-01-09T13:52:07.329Z,101.87
2023-01-09T13:55:36.384Z,147.44
2023-01-09T13:59:09.513Z,140.23
2023-01-09T14:02:59.356Z,113.39
2023-01-09T14:06:24.521Z,138.91
2023-01-09T14:09:37.776Z,107.62
2023-01-09T14:12:47.044Z,105.61
2023-01-09T14:16:04.666Z,114.20
2023-01-09T14:19:35.095Z,112.30
2023-01-09T14:22:50.471Z,124.75
2023-01-09T14:26:06.834Z,125.12
2023-01-09T14:29:47.641Z,139.16
2023-01-09T14:33:00.929Z,125.47
2023-01-09T14:36:19.752Z,134.36
2023-01-09T14:39:29.092Z,156.88
2023-01-09T14:42:45.027Z,153.73
2023-01-09T14:45:53.364Z,164.92
2023-01-09T14:49:16.560Z,150.89
2023-01-09T14:52:31.208Z,207.47
2023-01-09T14:55:54.047Z,200.71
2023-01-09T14:59:16.754Z,259.08
2023-01-09T15:02:24.504Z,213.76
2023-01-09T15:05:31.870Z,208.08
2023-01-09T15:08:40.629Z,193.81
2023-01-09T15:11:47.717Z,182.10
2023-01-09T15:15:05.002Z,196.71
2023-01-09T15:18:12.912Z,220.93
2023-01-09T15:21:27.702Z,226.43
2023-01-09T15:24:37.541Z,226.71
2023-01-09T15:27:51.806Z,199.64
2023-01-09T15:31:08.022Z,195.32
2023-01-09T15:34:24.944Z,193.42
2023-01-09T15:37:39.150Z,187.39
2023-01-09T15:40:46.818Z,210.16
2023-01-09T15:43:53.077Z,198.93
2023-01-09T15:47:07.469Z,184.56
2023-01-09T15:50:19.077Z,195.35
2023-01-09T15:53:29.906Z,180.01
2023-01-09T15:56:39.381Z,201.65
2023-01-09T15:59:46.354Z,231.26
2023-01-09T16:03:07.584Z,270.26
2023-01-09T16:06:26.630Z,243.56
2023-01-09T16:09:38.027Z,216.64
2023-01-09T16:12:44.968Z,211.56
2023-01-09T16:15:52.503Z,231.62
2023-01-09T16:19:03.063Z,252.87
2023-01-09T16:22:24.071Z,271.45
2023-01-09T16:25:35.174Z,284.87
2023-01-09T16:28:43.219Z,317.88
2023-01-09T16:31:50.457Z,327.91
2023-01-09T16:35:05.574Z,356.61
2023-01-09T16:38:17.900Z,442.49
2023-01-09T16:41:40.376Z,470.81
2023-01-09T16:44:47.585Z,429.44
2023-01-09T16:47:55.482Z,258.76
2023-01-09T16:51:05.030Z,258.88
2023-01-09T16:54:11.943Z,225.37
2023-01-09T16:57:21.850Z,225.68
2023-01-09T17:00:28.422Z,220.82
2023-01-09T17:03:35.574Z,213.40
2023-01-09T17:06:45.690Z,227.60
2023-01-09T17:09:53.476Z,229.88
2023-01-09T17:12:59.759Z,227.17
2023-01-09T17:16:08.955Z,226.90
2023-01-09T17:19:23.689Z,263.85
2023-01-09T17:22:33.202Z,321.48
2023-01-09T17:25:52.338Z,341.14
2023-01-09T17:28:59.271Z,351.30
2023-01-09T17:32:06.927Z,370.86
2023-01-09T17:35:16.278Z,365.20
2023-01-09T17:38:25.138Z,357.62
2023-01-09T17:41:35.147Z,372.67
2023-01-09T17:44:41.562Z,366.91
2023-01-09T17:47:48.464Z,438.80
2023-01-09T17:50:54.585Z,425.84
2023-01-09T17:54:04.172Z,368.14
2023-01-09T17:57:17.680Z,320.84
2023-01-09T18:00:30.950Z,305.78
2023-01-09T18:03:36.989Z,301.66
2023-01-09T18:06:44.056Z,303.08
2023-01-09T18:09:52.747Z,290.19
2023-01-09T18:13:00.604Z,288.85
2023-01-09T18:16:07.576Z,297.71
2023-01-09T18:19:14.543Z,298.49
2023-01-09T18:22:20.764Z,315.23
2023-01-09T18:25:30.264Z,353.45
2023-01-09T18:28:39.300Z,633.09
2023-01-09T18:31:46.283Z,1341.70
2023-01-09T18:34:52.404Z,1213.83
2023-01-09T18:37:59.373Z,631.34
2023-01-09T18:41:09.450Z,596.18
2023-01-09T18:44:18.245Z,386.07
2023-01-09T18:47:24.243Z,256.28
2023-01-09T18:50:31.249Z,251.45
2023-01-09T18:53:38.393Z,246.60
2023-01-09T18:56:48.018Z,249.31
2023-01-09T18:59:54.302Z,215.98
2023-01-09T19:03:01.651Z,217.18
2023-01-09T19:06:08.777Z,204.41
2023-01-09T19:09:16.132Z,239.93
2023-01-09T19:12:25.591Z,277.10
2023-01-09T19:15:34.905Z,354.62
2023-01-09T19:18:44.771Z,513.52
2023-01-09T19:21:51.856Z,678.16
2023-01-09T19:24:58.097Z,527.03
2023-01-09T19:28:08.101Z,367.49
2023-01-09T19:31:14.495Z,378.28
2023-01-09T19:34:21.789Z,403.90
2023-01-09T19:37:28.022Z,393.19
2023-01-09T19:40:35.204Z,347.34
2023-01-09T19:43:44.757Z,479.95
2023-01-09T19:46:51.960Z,315.63
2023-01-09T19:49:58.300Z,418.39
2023-01-09T19:53:05.280Z,519.15
2023-01-09T19:56:17.414Z,487.37
2023-01-09T19:59:27.015Z,498.94
2023-01-09T20:02:33.127Z,420.82
2023-01-09T20:05:40.062Z,532.50
2023-01-09T20:08:47.786Z,712.28
2023-01-09T20:11:54.735Z,396.91
2023-01-09T20:15:03.439Z,416.41
2023-01-09T20:18:10.628Z,443.75
2023-01-09T20:24:30.169Z,404.68
2023-01-09T20:27:36.252Z,593.16
2023-01-09T20:30:50.680Z,587.40
2023-01-09T20:33:59.191Z,423.91
2023-01-09T20:37:06.103Z,422.53
2023-01-09T20:40:14.308Z,437.95
2023-01-09T20:43:21.356Z,392.98
2023-01-09T20:46:37.094Z,385.68
2023-01-09T20:49:43.990Z,382.06
2023-01-09T20:52:52.036Z,375.71
2023-01-09T20:56:04.370Z,361.01
2023-01-09T20:59:17.391Z,426.68
2023-01-09T21:02:26.993Z,481.53
2023-01-09T21:05:33.125Z,497.23
2023-01-09T21:08:42.218Z,422.57
2023-01-09T21:11:48.373Z,311.70
2023-01-09T21:14:55.399Z,296.47
2023-01-09T21:18:04.272Z,315.62
2023-01-09T21:21:16.287Z,321.31
2023-01-09T21:24:22.433Z,312.21
2023-01-09T21:27:30.833Z,320.54
2023-01-09T21:30:37.180Z,324.98
2023-01-09T21:33:47.046Z,325.45
2023-01-09T21:36:54.033Z,315.10
2023-01-09T21:40:01.024Z,334.13
2023-01-09T21:43:19.629Z,337.00
2023-01-09T21:46:39.076Z,336.59
2023-01-09T21:49:48.602Z,309.19
2023-01-09T21:52:55.544Z,310.06
2023-01-09T21:56:05.431Z,325.94
2023-01-09T21:59:13.643Z,478.29
2023-01-09T22:02:21.686Z,357.91
2023-01-09T22:05:32.044Z,326.54
2023-01-09T22:08:39.222Z,322.25
2023-01-09T22:11:46.941Z,323.45
2023-01-09T22:14:52.960Z,331.24
2023-01-09T22:17:59.893Z,348.41
2023-01-09T22:21:09.264Z,366.32
2023-01-09T22:24:19.794Z,340.56
2023-01-09T22:27:26.319Z,330.82
2023-01-09T22:30:33.448Z,320.20
2023-01-09T22:33:39.614Z,322.33
2023-01-09T22:36:50.696Z,313.53
2023-01-09T22:39:56.809Z,313.61
2023-01-09T22:43:03.744Z,321.04
2023-01-09T22:46:12.762Z,330.27
2023-01-09T22:49:19.837Z,325.04
2023-01-09T22:52:28.957Z,318.54
2023-01-09T22:55:35.922Z,332.11
2023-01-09T22:58:42.481Z,301.31
2023-01-09T23:01:49.517Z,303.16
2023-01-09T23:04:58.534Z,319.38
2023-01-09T23:08:08.460Z,340.06
2023-01-09T23:11:39.516Z,331.87
2023-01-09T23:14:46.510Z,331.57
2023-01-09T23:17:52.542Z,361.74
2023-01-09T23:21:03.054Z,342.09
2023-01-09T23:24:12.511Z,332.09
2023-01-09T23:27:19.442Z,359.71
2023-01-09T23:30:26.080Z,349.73
2023-01-09T23:33:33.125Z,350.63
2023-01-09T23:36:39.869Z,342.20
2023-01-09T23:39:49.375Z,350.78
2023-01-09T23:43:07.832Z,341.16
2023-01-09T23:46:15.490Z,350.95
2023-01-09T23:49:21.631Z,360.67
2023-01-09T23:52:28.517Z,372.07
2023-01-09T23:55:39.445Z,372.83
2023-01-09T23:58:46.398Z,374.22
